Time;durP1;ratioP1;P1;durP2;ratioP2;P2;SDS_P1;SDS_P2;PMS_P1;PMS_P2;Temp;Humidity;BMP_temperature;BMP_pressure;BME280_temperature;BME280_humidity;BME280_pressure;Samples;Min_cycle;Max_cycle;Signal;HPM_P1;HPM_P2
2022/06/16 00:02:00;;;;;;;18.98;6.20;;;;;;;;;;4973168;28;20019;-65
2022/06/16 00:04:26;;;;;;;14.63;5.40;;;;;;;;;;4975263;28;20041;-65
2022/06/16 00:06:56;;;;;;;19.60;6.28;;;;;;;;;;4975271;28;20035;-65
2022/06/16 00:09:26;;;;;;;15.48;5.63;;;;;;;;;;4975224;28;20029;-65
2022/06/16 00:11:54;;;;;;;16.50;5.70;;;;;;;;;;4974909;28;20057;-65
2022/06/16 00:14:23;;;;;;;20.45;6.22;;;;;;;;;;4975020;28;20511;-65
2022/06/16 00:16:49;;;;;;;16.27;6.05;;;;;;;;;;4974882;28;20023;-65
2022/06/16 00:19:16;;;;;;;24.88;6.30;;;;;;;;;;4974946;28;20514;-65
2022/06/16 00:21:42;;;;;;;19.02;6.30;;;;;;;;;;4974962;28;20025;-65
2022/06/16 00:24:08;;;;;;;21.55;6.15;;;;;;;;;;4975006;28;20530;-65
2022/06/16 00:26:35;;;;;;;21.33;6.70;;;;;;;;;;4974624;28;20037;-65
2022/06/16 00:29:01;;;;;;;17.50;5.82;;;;;;;;;;4974772;28;20483;-65
2022/06/16 00:31:27;;;;;;;18.20;6.28;;;;;;;;;;4974941;28;20025;-65
2022/06/16 00:33:54;;;;;;;16.60;5.78;;;;;;;;;;4974540;28;20041;-65
2022/06/16 00:36:20;;;;;;;15.75;5.90;;;;;;;;;;4974802;28;20023;-65
2022/06/16 00:38:46;;;;;;;16.50;5.63;;;;;;;;;;4974188;28;20039;-65
2022/06/16 00:41:13;;;;;;;19.00;6.35;;;;;;;;;;4974631;28;20023;-65
2022/06/16 00:43:40;;;;;;;16.15;6.05;;;;;;;;;;4974701;28;20038;-65
2022/06/16 00:46:08;;;;;;;14.60;6.22;;;;;;;;;;4974429;28;20038;-65
2022/06/16 00:48:43;;;;;;;15.23;5.78;;;;;;;;;;4974503;28;20021;-65
2022/06/16 00:51:14;;;;;;;13.48;5.35;;;;;;;;;;4974884;28;20037;-65
2022/06/16 00:53:41;;;;;;;15.07;5.47;;;;;;;;;;4973674;28;20041;-65
2022/06/16 00:56:09;;;;;;;19.67;5.97;;;;;;;;;;4974156;28;20041;-65
2022/06/16 00:58:37;;;;;;;20.80;6.80;;;;;;;;;;4974230;28;20023;-65
2022/06/16 01:01:04;;;;;;;17.42;6.18;;;;;;;;;;4974217;28;20513;-65
2022/06/16 01:06:35;;;;;;;22.58;6.53;;;;;;;;;;4952468;29;20399;-65
2022/06/16 01:09:04;;;;;;;15.90;5.95;;;;;;;;;;4952538;29;20094;-65
2022/06/16 01:14:48;;;;;;;14.40;5.72;;;;;;;;;;4952162;28;20059;-65
2022/06/16 01:17:35;;;;;;;17.60;6.75;;;;;;;;;;4952080;29;20043;-65
2022/06/16 01:20:01;;;;;;;21.10;7.20;;;;;;;;;;4952053;29;20498;-65
2022/06/16 01:22:27;;;;;;;19.33;6.45;;;;;;;;;;4951970;29;20028;-65
2022/06/16 01:25:08;;;;;;;16.73;6.13;;;;;;;;;;4952073;29;20043;-65
2022/06/16 01:27:34;;;;;;;19.13;6.03;;;;;;;;;;4949550;29;20027;-65
2022/06/16 01:30:06;;;;;;;24.02;5.60;;;;;;;;;;4952399;29;20070;-65
2022/06/16 01:32:35;;;;;;;17.35;6.28;;;;;;;;;;4951847;29;20435;-65
2022/06/16 01:35:01;;;;;;;14.00;6.07;;;;;;;;;;4951889;29;20138;-65
2022/06/16 01:37:48;;;;;;;15.50;6.10;;;;;;;;;;4960631;28;20035;-65
2022/06/16 01:40:20;;;;;;;18.10;6.05;;;;;;;;;;4950166;28;20031;-65
2022/06/16 01:42:53;;;;;;;18.73;6.10;;;;;;;;;;4973297;28;20039;-65
2022/06/16 01:45:29;;;;;;;21.38;6.80;;;;;;;;;;4973845;28;20475;-66
2022/06/16 01:47:55;;;;;;;20.85;6.10;;;;;;;;;;4973506;28;20034;-65
2022/06/16 01:50:25;;;;;;;17.73;6.22;;;;;;;;;;4973268;28;20030;-65
2022/06/16 01:52:56;;;;;;;17.35;6.07;;;;;;;;;;4972581;28;20487;-65
2022/06/16 01:55:25;;;;;;;20.75;6.57;;;;;;;;;;4973091;28;20506;-65
2022/06/16 01:57:58;;;;;;;14.27;5.88;;;;;;;;;;4972996;28;20027;-65
2022/06/16 02:00:26;;;;;;;15.15;5.60;;;;;;;;;;4973871;28;20042;-65
2022/06/16 02:02:56;;;;;;;15.88;6.53;;;;;;;;;;4972969;28;20035;-65
2022/06/16 02:05:32;;;;;;;17.17;6.13;;;;;;;;;;4972535;28;20037;-65
2022/06/16 02:08:06;;;;;;;18.90;5.95;;;;;;;;;;4972732;28;20070;-65
2022/06/16 02:10:39;;;;;;;21.42;6.70;;;;;;;;;;4972934;28;20027;-65
2022/06/16 02:13:06;;;;;;;15.75;6.28;;;;;;;;;;4972693;28;20451;-65
2022/06/16 02:15:38;;;;;;;17.45;5.55;;;;;;;;;;4971554;28;20050;-65
2022/06/16 02:18:08;;;;;;;15.98;6.38;;;;;;;;;;4972478;28;20499;-65
2022/06/16 02:20:42;;;;;;;19.20;6.78;;;;;;;;;;4972539;28;20034;-65
2022/06/16 02:23:09;;;;;;;17.05;6.65;;;;;;;;;;4955301;28;20031;-65
2022/06/16 02:25:35;;;;;;;16.00;5.90;;;;;;;;;;4971919;28;20023;-65
2022/06/16 02:28:02;;;;;;;15.57;6.75;;;;;;;;;;4955618;28;20034;-65
2022/06/16 02:30:30;;;;;;;19.80;6.50;;;;;;;;;;4973044;28;20511;-65
2022/06/16 02:33:17;;;;;;;16.00;6.63;;;;;;;;;;4972825;28;20047;-65
2022/06/16 02:36:03;;;;;;;19.58;6.47;;;;;;;;;;4971895;28;20039;-65
2022/06/16 02:38:42;;;;;;;21.67;6.57;;;;;;;;;;4972266;28;20023;-65
2022/06/16 02:41:08;;;;;;;13.68;5.88;;;;;;;;;;4972294;28;20503;-65
2022/06/16 02:43:35;;;;;;;15.57;6.95;;;;;;;;;;4972082;28;20030;-65
2022/06/16 02:46:30;;;;;;;21.77;8.05;;;;;;;;;;4954820;28;20503;-65
2022/06/16 02:49:15;;;;;;;19.65;7.80;;;;;;;;;;4893177;29;20039;-65
2022/06/16 02:51:53;;;;;;;20.50;8.13;;;;;;;;;;4891876;29;20066;-65
2022/06/16 02:54:22;;;;;;;18.58;8.07;;;;;;;;;;4890033;29;20044;-65
2022/06/16 02:56:49;;;;;;;17.73;7.93;;;;;;;;;;4873689;29;20075;-65
2022/06/16 02:59:21;;;;;;;20.63;7.93;;;;;;;;;;4889242;29;20395;-65
2022/06/16 03:01:48;;;;;;;17.15;7.07;;;;;;;;;;4889562;29;20032;-65
2022/06/16 03:04:16;;;;;;;17.70;8.48;;;;;;;;;;4891101;29;20052;-65
2022/06/16 03:06:43;;;;;;;18.55;7.75;;;;;;;;;;4891680;29;20539;-65
2022/06/16 03:09:09;;;;;;;20.65;8.48;;;;;;;;;;4889821;29;20039;-65
2022/06/16 03:11:36;;;;;;;24.88;8.88;;;;;;;;;;4889110;29;20058;-64
2022/06/16 03:14:03;;;;;;;19.05;8.50;;;;;;;;;;4888880;29;20057;-65
2022/06/16 03:16:30;;;;;;;20.50;8.95;;;;;;;;;;4873627;29;20025;-65
2022/06/16 03:18:57;;;;;;;18.58;9.52;;;;;;;;;;4893325;29;20044;-65
2022/06/16 03:21:23;;;;;;;22.52;8.93;;;;;;;;;;4889592;29;20039;-65
2022/06/16 03:23:49;;;;;;;17.90;9.02;;;;;;;;;;4889070;29;20037;-65
2022/06/16 03:26:16;;;;;;;18.92;8.75;;;;;;;;;;4962428;28;20068;-65
2022/06/16 03:28:42;;;;;;;22.77;9.13;;;;;;;;;;4971451;28;20031;-65
2022/06/16 03:31:08;;;;;;;20.17;9.65;;;;;;;;;;4971709;28;20487;-65
2022/06/16 03:33:35;;;;;;;20.30;8.07;;;;;;;;;;4971430;28;20046;-65
2022/06/16 03:36:01;;;;;;;19.52;7.45;;;;;;;;;;4972256;28;20514;-65
2022/06/16 03:38:42;;;;;;;21.17;8.35;;;;;;;;;;4975628;28;20400;-65
2022/06/16 03:41:10;;;;;;;18.23;8.07;;;;;;;;;;4975568;28;20027;-65
2022/06/16 03:43:36;;;;;;;17.70;7.22;;;;;;;;;;4975481;28;20551;-65
2022/06/16 03:46:03;;;;;;;23.58;8.13;;;;;;;;;;4975554;28;20030;-65
2022/06/16 03:48:29;;;;;;;17.05;8.20;;;;;;;;;;4975442;28;20085;-64
2022/06/16 03:50:55;;;;;;;28.38;8.88;;;;;;;;;;4975791;28;20031;-65
2022/06/16 03:53:22;;;;;;;17.50;8.80;;;;;;;;;;4975106;28;20404;-65
2022/06/16 03:55:48;;;;;;;19.77;8.55;;;;;;;;;;4975425;28;20051;-65
2022/06/16 03:58:15;;;;;;;25.05;8.75;;;;;;;;;;4975144;28;20038;-65
2022/06/16 04:00:41;;;;;;;20.45;8.52;;;;;;;;;;4975223;28;20023;-65
2022/06/16 04:05:53;;;;;;;20.65;8.85;;;;;;;;;;4974992;28;20395;-65
2022/06/16 04:08:20;;;;;;;17.77;9.00;;;;;;;;;;4975165;28;20089;-65
2022/06/16 04:10:47;;;;;;;20.35;9.45;;;;;;;;;;4975076;28;20023;-65
2022/06/16 04:13:14;;;;;;;20.95;8.77;;;;;;;;;;4974994;28;20043;-65
2022/06/16 04:15:41;;;;;;;17.73;8.65;;;;;;;;;;4974455;28;20410;-65
2022/06/16 04:18:07;;;;;;;20.27;8.85;;;;;;;;;;4975137;28;20503;-65
2022/06/16 04:20:34;;;;;;;21.20;7.78;;;;;;;;;;4974889;28;20048;-65
2022/06/16 04:23:01;;;;;;;21.52;7.70;;;;;;;;;;4974645;28;20026;-65
2022/06/16 04:25:33;;;;;;;20.20;7.28;;;;;;;;;;4974750;28;20062;-65
2022/06/16 04:28:01;;;;;;;19.80;7.22;;;;;;;;;;4975018;28;20026;-65
2022/06/16 04:30:27;;;;;;;22.02;7.55;;;;;;;;;;4971060;28;20033;-64
2022/06/16 04:32:54;;;;;;;19.48;7.88;;;;;;;;;;4974567;28;20038;-65
2022/06/16 04:35:21;;;;;;;16.38;7.70;;;;;;;;;;4974617;28;20023;-65
2022/06/16 04:37:47;;;;;;;21.52;8.73;;;;;;;;;;4974711;28;20034;-65
2022/06/16 04:40:13;;;;;;;19.75;8.65;;;;;;;;;;4974708;28;20019;-65
2022/06/16 04:42:39;;;;;;;23.30;8.20;;;;;;;;;;4974461;28;20035;-65
2022/06/16 04:45:06;;;;;;;18.70;8.98;;;;;;;;;;4974518;28;20391;-65
2022/06/16 04:47:32;;;;;;;20.63;8.60;;;;;;;;;;4973973;28;20035;-65
2022/06/16 04:49:59;;;;;;;19.52;8.98;;;;;;;;;;4974245;28;20088;-65
2022/06/16 04:52:25;;;;;;;20.60;9.25;;;;;;;;;;4974255;28;20487;-65
2022/06/16 04:54:51;;;;;;;18.33;9.05;;;;;;;;;;4974275;28;20829;-65
2022/06/16 04:57:18;;;;;;;19.60;9.45;;;;;;;;;;4974560;28;20406;-64
2022/06/16 04:59:44;;;;;;;20.55;9.70;;;;;;;;;;4973828;28;20035;-65
2022/06/16 05:02:10;;;;;;;20.45;9.48;;;;;;;;;;4974223;28;20031;-65
2022/06/16 05:04:39;;;;;;;17.77;8.27;;;;;;;;;;4973995;28;20018;-65
2022/06/16 05:07:05;;;;;;;21.50;9.15;;;;;;;;;;4974155;28;20027;-65
2022/06/16 05:09:32;;;;;;;22.77;8.95;;;;;;;;;;4974197;28;20089;-65
2022/06/16 05:11:58;;;;;;;18.65;8.43;;;;;;;;;;4973771;28;20033;-65
2022/06/16 05:14:25;;;;;;;22.60;8.27;;;;;;;;;;4973421;28;20144;-65
2022/06/16 05:16:51;;;;;;;22.48;8.85;;;;;;;;;;4973782;28;20018;-65
2022/06/16 05:19:18;;;;;;;20.05;9.40;;;;;;;;;;4973804;28;20035;-65
2022/06/16 05:21:44;;;;;;;17.80;8.30;;;;;;;;;;4974130;28;20083;-65
2022/06/16 05:24:10;;;;;;;20.80;9.40;;;;;;;;;;4974196;28;20029;-65
2022/06/16 05:26:37;;;;;;;19.88;7.90;;;;;;;;;;4973817;28;20045;-65
2022/06/16 05:29:03;;;;;;;20.65;9.32;;;;;;;;;;4973359;28;20029;-65
2022/06/16 05:31:30;;;;;;;19.77;8.80;;;;;;;;;;4973832;28;20019;-65
2022/06/16 05:33:56;;;;;;;19.10;9.38;;;;;;;;;;4973462;28;20043;-65
2022/06/16 05:36:23;;;;;;;22.83;8.82;;;;;;;;;;4973704;28;20357;-65
2022/06/16 05:38:49;;;;;;;23.88;8.57;;;;;;;;;;4973584;28;20033;-65
2022/06/16 05:41:16;;;;;;;17.80;9.30;;;;;;;;;;4973122;28;20027;-65
2022/06/16 05:43:43;;;;;;;29.27;9.52;;;;;;;;;;4972935;28;20023;-65
2022/06/16 05:46:20;;;;;;;23.52;8.95;;;;;;;;;;4973497;28;20035;-65
2022/06/16 05:48:46;;;;;;;24.30;9.50;;;;;;;;;;4973213;28;20496;-65
2022/06/16 05:51:14;;;;;;;19.35;9.73;;;;;;;;;;4973830;28;20042;-65
2022/06/16 05:53:40;;;;;;;19.08;8.45;;;;;;;;;;4972868;28;20415;-65
2022/06/16 05:56:07;;;;;;;27.33;10.43;;;;;;;;;;4973153;28;20051;-65
2022/06/16 05:58:33;;;;;;;21.92;9.77;;;;;;;;;;4972069;28;20027;-65
2022/06/16 06:01:00;;;;;;;22.40;9.15;;;;;;;;;;4972816;28;20394;-65
2022/06/16 06:03:26;;;;;;;22.83;9.43;;;;;;;;;;4973464;28;20035;-65
2022/06/16 06:05:52;;;;;;;19.33;8.52;;;;;;;;;;4973077;28;20027;-65
2022/06/16 06:16:37;;;;;;;23.52;7.75;;;;;;;;;;4969220;28;20582;-69
2022/06/16 06:19:24;;;;;;;27.15;7.88;;;;;;;;;;4966858;28;20038;-69
2022/06/16 06:22:13;;;;;;;20.77;8.65;;;;;;;;;;4959859;28;20037;-69
2022/06/16 06:24:42;;;;;;;18.58;8.10;;;;;;;;;;4970090;28;20031;-69
2022/06/16 06:27:20;;;;;;;22.48;8.45;;;;;;;;;;4972126;28;20031;-69
2022/06/16 06:29:47;;;;;;;25.67;8.57;;;;;;;;;;4971810;28;20034;-69
2022/06/16 06:32:14;;;;;;;19.90;9.00;;;;;;;;;;4971225;28;20027;-69
2022/06/16 06:34:40;;;;;;;29.65;8.65;;;;;;;;;;4971821;28;20039;-70
2022/06/16 06:37:07;;;;;;;21.13;8.55;;;;;;;;;;4982126;28;20026;-69
2022/06/16 06:39:34;;;;;;;16.85;7.88;;;;;;;;;;4971664;28;20031;-68
2022/06/16 06:42:03;;;;;;;17.50;7.70;;;;;;;;;;4971236;28;20098;-69
2022/06/16 06:44:29;;;;;;;18.95;8.02;;;;;;;;;;4971106;28;20027;-69
2022/06/16 06:46:56;;;;;;;16.92;7.63;;;;;;;;;;4969877;28;20521;-69
2022/06/16 06:49:22;;;;;;;19.85;7.95;;;;;;;;;;4968326;28;20550;-69
2022/06/16 06:51:48;;;;;;;21.48;7.93;;;;;;;;;;4971632;28;20045;-69
2022/06/16 06:54:15;;;;;;;20.15;8.15;;;;;;;;;;4969731;28;20042;-69
2022/06/16 06:56:42;;;;;;;31.15;7.90;;;;;;;;;;4966405;28;20034;-69
2022/06/16 06:59:13;;;;;;;20.15;8.13;;;;;;;;;;4965899;28;20039;-68
2022/06/16 07:01:40;;;;;;;20.15;8.25;;;;;;;;;;4971805;28;20026;-69
2022/06/16 07:04:06;;;;;;;16.50;7.95;;;;;;;;;;4971404;28;20034;-69
2022/06/16 07:06:33;;;;;;;29.35;8.50;;;;;;;;;;4972033;28;20403;-69
2022/06/16 07:08:59;;;;;;;23.05;8.50;;;;;;;;;;4971918;28;20034;-69
2022/06/16 07:11:26;;;;;;;20.40;8.05;;;;;;;;;;4971102;28;20039;-70
2022/06/16 07:13:52;;;;;;;22.75;8.20;;;;;;;;;;4969076;28;20039;-69
2022/06/16 07:16:20;;;;;;;24.63;8.18;;;;;;;;;;4970221;28;20035;-69
2022/06/16 07:18:46;;;;;;;20.83;8.70;;;;;;;;;;4969906;28;20033;-69
2022/06/16 07:21:14;;;;;;;20.42;7.45;;;;;;;;;;4972076;28;20515;-68
2022/06/16 07:23:41;;;;;;;23.50;8.05;;;;;;;;;;4971632;28;20033;-69
2022/06/16 07:26:08;;;;;;;15.43;7.70;;;;;;;;;;4969677;28;20245;-69
2022/06/16 07:28:34;;;;;;;20.85;6.72;;;;;;;;;;4971028;28;20031;-69
2022/06/16 07:31:00;;;;;;;17.05;7.03;;;;;;;;;;4971678;28;20033;-69
2022/06/16 07:33:27;;;;;;;18.27;7.53;;;;;;;;;;4971176;28;20399;-68
2022/06/16 07:35:55;;;;;;;18.02;7.40;;;;;;;;;;4971246;28;20108;-70
2022/06/16 07:38:22;;;;;;;17.73;7.03;;;;;;;;;;4971307;28;20406;-69
2022/06/16 07:40:48;;;;;;;19.83;6.95;;;;;;;;;;4953292;28;20045;-69
2022/06/16 07:43:15;;;;;;;16.17;7.00;;;;;;;;;;4967006;28;20031;-69
2022/06/16 07:45:41;;;;;;;22.92;7.90;;;;;;;;;;4971438;28;20027;-70
2022/06/16 07:48:08;;;;;;;20.58;7.40;;;;;;;;;;4948527;29;20085;-69
2022/06/16 07:50:38;;;;;;;18.48;6.70;;;;;;;;;;4968265;28;20419;-69
2022/06/16 07:53:05;;;;;;;13.87;6.80;;;;;;;;;;4961391;28;20054;-69
2022/06/16 07:55:33;;;;;;;13.68;6.95;;;;;;;;;;4964189;28;20270;-69
2022/06/16 07:57:59;;;;;;;14.27;7.13;;;;;;;;;;4970396;28;20043;-69
2022/06/16 08:00:27;;;;;;;21.42;7.00;;;;;;;;;;4970658;28;20053;-69
2022/06/16 08:02:55;;;;;;;20.45;6.53;;;;;;;;;;4971281;28;20034;-69
2022/06/16 08:05:21;;;;;;;22.95;7.15;;;;;;;;;;4968361;28;20038;-70
2022/06/16 08:07:48;;;;;;;16.40;6.43;;;;;;;;;;4966301;28;20031;-70
2022/06/16 08:10:17;;;;;;;13.75;6.35;;;;;;;;;;4952422;28;20042;-69
2022/06/16 08:12:43;;;;;;;16.13;6.78;;;;;;;;;;4971396;28;20041;-70
2022/06/16 08:15:10;;;;;;;16.65;6.40;;;;;;;;;;4970871;28;20049;-69
2022/06/16 08:17:38;;;;;;;13.75;6.60;;;;;;;;;;4970326;28;20033;-70
2022/06/16 08:20:05;;;;;;;16.40;6.80;;;;;;;;;;4967030;28;20027;-70
2022/06/16 08:22:32;;;;;;;22.23;6.38;;;;;;;;;;4970123;28;20027;-69
2022/06/16 08:24:58;;;;;;;16.77;6.25;;;;;;;;;;4973852;28;20030;-70
2022/06/16 08:27:27;;;;;;;19.20;6.32;;;;;;;;;;4975006;28;20466;-70
2022/06/16 08:29:53;;;;;;;17.92;6.60;;;;;;;;;;4973711;28;20057;-70
2022/06/16 08:32:20;;;;;;;14.68;6.10;;;;;;;;;;4974078;28;20442;-70
2022/06/16 08:34:47;;;;;;;12.98;5.95;;;;;;;;;;4974089;28;20027;-70
2022/06/16 08:37:14;;;;;;;17.17;6.18;;;;;;;;;;4973180;28;20096;-70
2022/06/16 08:39:40;;;;;;;17.30;6.18;;;;;;;;;;4973811;28;20037;-70
2022/06/16 08:42:15;;;;;;;17.23;6.13;;;;;;;;;;4974680;28;20019;-70
2022/06/16 08:44:48;;;;;;;16.20;5.70;;;;;;;;;;4973051;28;20035;-70
2022/06/16 08:47:22;;;;;;;17.65;5.60;;;;;;;;;;4973988;28;20025;-70
2022/06/16 08:49:58;;;;;;;16.60;5.43;;;;;;;;;;4973390;28;20027;-70
2022/06/16 08:52:44;;;;;;;14.60;5.13;;;;;;;;;;4972426;28;20030;-70
2022/06/16 08:55:19;;;;;;;15.73;5.25;;;;;;;;;;4971229;28;20414;-77
2022/06/16 08:57:45;;;;;;;20.65;5.45;;;;;;;;;;4973596;28;20529;-72
2022/06/16 09:00:14;;;;;;;22.55;5.05;;;;;;;;;;4973144;28;20499;-73
2022/06/16 09:02:43;;;;;;;16.38;5.07;;;;;;;;;;4972377;28;20037;-74
2022/06/16 09:05:19;;;;;;;16.53;5.50;;;;;;;;;;4968394;28;20029;-73
2022/06/16 09:07:52;;;;;;;19.00;5.45;;;;;;;;;;4962939;28;20573;-73
2022/06/16 09:10:23;;;;;;;17.42;5.25;;;;;;;;;;4973507;28;20046;-74
2022/06/16 09:12:58;;;;;;;16.48;5.65;;;;;;;;;;4965793;28;20041;-73
2022/06/16 09:15:48;;;;;;;17.13;4.55;;;;;;;;;;4967596;28;20058;-73
2022/06/16 09:18:30;;;;;;;16.25;4.82;;;;;;;;;;4951969;29;20035;-73
2022/06/16 09:21:19;;;;;;;19.00;4.60;;;;;;;;;;4951373;29;20172;-74
2022/06/16 09:23:48;;;;;;;15.82;4.60;;;;;;;;;;4951144;29;20035;-74
2022/06/16 09:26:44;;;;;;;19.73;4.50;;;;;;;;;;4950560;29;20494;-73
2022/06/16 09:29:16;;;;;;;16.40;4.80;;;;;;;;;;4940591;29;20039;-73
2022/06/16 09:31:47;;;;;;;15.60;4.97;;;;;;;;;;4951436;29;20033;-73
2022/06/16 09:34:20;;;;;;;15.77;4.63;;;;;;;;;;4947836;28;20051;-74
2022/06/16 09:36:52;;;;;;;15.20;3.97;;;;;;;;;;4950082;29;20039;-74
2022/06/16 09:39:24;;;;;;;21.30;4.47;;;;;;;;;;4949720;29;20439;-73
2022/06/16 09:44:58;;;;;;;19.83;3.92;;;;;;;;;;4856859;29;20426;-73
2022/06/16 09:47:28;;;;;;;15.65;3.97;;;;;;;;;;4852121;29;20045;-73
2022/06/16 09:49:58;;;;;;;15.68;3.80;;;;;;;;;;4851419;29;20044;-74
2022/06/16 09:52:27;;;;;;;14.40;3.72;;;;;;;;;;4855605;29;20041;-74
2022/06/16 09:54:56;;;;;;;15.23;4.28;;;;;;;;;;4860002;29;20870;-73
2022/06/16 09:57:48;;;;;;;11.85;3.78;;;;;;;;;;4875274;29;20043;-74
2022/06/16 10:00:17;;;;;;;10.40;3.50;;;;;;;;;;4872814;29;20073;-74
2022/06/16 10:02:49;;;;;;;8.02;3.55;;;;;;;;;;4872190;29;20494;-73
2022/06/16 10:05:18;;;;;;;19.50;3.30;;;;;;;;;;4873985;29;20552;-74
2022/06/16 10:07:48;;;;;;;16.65;3.65;;;;;;;;;;4874866;29;20558;-73
2022/06/16 10:10:14;;;;;;;;;;;;;;;;;;4875919;29;20045;-73
2022/06/16 10:12:57;;;;;;;13.48;3.65;;;;;;;;;;4875571;29;19919;-74
2022/06/16 10:15:28;;;;;;;12.02;3.45;;;;;;;;;;4875599;29;20071;-74
2022/06/16 10:17:55;;;;;;;13.13;3.53;;;;;;;;;;4875189;29;20039;-74
2022/06/16 10:20:21;;;;;;;16.02;3.42;;;;;;;;;;4875032;29;20051;-73
2022/06/16 10:22:51;;;;;;;21.20;3.70;;;;;;;;;;4951341;29;20043;-74
2022/06/16 10:25:17;;;;;;;11.30;3.43;;;;;;;;;;4953308;29;20035;-74
2022/06/16 10:27:46;;;;;;;12.45;3.40;;;;;;;;;;4953547;28;20038;-67
2022/06/16 10:30:18;;;;;;;9.35;2.90;;;;;;;;;;4951776;29;20031;-74
2022/06/16 10:32:48;;;;;;;14.68;3.45;;;;;;;;;;4952268;29;20428;-74
2022/06/16 10:35:19;;;;;;;9.60;3.33;;;;;;;;;;4953310;29;20041;-74
2022/06/16 10:37:47;;;;;;;9.52;3.10;;;;;;;;;;4952924;29;20031;-74
2022/06/16 10:40:23;;;;;;;11.45;3.47;;;;;;;;;;4953158;29;20023;-74
2022/06/16 10:42:51;;;;;;;18.20;3.60;;;;;;;;;;4952829;28;20689;-74
2022/06/16 10:45:26;;;;;;;15.35;3.63;;;;;;;;;;4952607;28;20030;-75
2022/06/16 10:47:55;;;;;;;16.33;3.70;;;;;;;;;;4952419;28;20496;-74
2022/06/16 10:50:24;;;;;;;14.25;3.75;;;;;;;;;;4953122;29;20031;-74
2022/06/16 10:53:00;;;;;;;11.38;3.15;;;;;;;;;;4952575;29;20050;-75
2022/06/16 10:55:29;;;;;;;12.30;3.22;;;;;;;;;;4952795;29;20053;-74
2022/06/16 10:58:06;;;;;;;16.50;3.17;;;;;;;;;;4951370;29;20490;-74
2022/06/16 11:00:33;;;;;;;14.32;3.60;;;;;;;;;;4949643;29;20491;-74
2022/06/16 11:03:00;;;;;;;11.77;3.20;;;;;;;;;;4952535;29;20023;-74
2022/06/16 11:05:27;;;;;;;20.88;3.40;;;;;;;;;;4952787;28;20033;-74
2022/06/16 11:07:54;;;;;;;16.23;2.95;;;;;;;;;;4952876;29;20081;-74
2022/06/16 11:10:32;;;;;;;11.63;2.75;;;;;;;;;;4952651;29;21863;-74
2022/06/16 11:12:58;;;;;;;11.10;2.95;;;;;;;;;;4952456;28;20063;-74
2022/06/16 11:15:29;;;;;;;9.52;2.97;;;;;;;;;;4968018;28;20050;-74
2022/06/16 11:17:58;;;;;;;11.68;2.92;;;;;;;;;;4971607;28;20041;-74
2022/06/16 11:20:37;;;;;;;12.05;3.15;;;;;;;;;;4971828;28;20073;-74
2022/06/16 11:23:22;;;;;;;8.15;3.15;;;;;;;;;;4954525;28;20027;-74
2022/06/16 11:26:00;;;;;;;10.48;2.70;;;;;;;;;;4969528;28;20034;-74
2022/06/16 11:28:27;;;;;;;9.73;2.75;;;;;;;;;;4971514;28;20031;-74
2022/06/16 11:31:00;;;;;;;13.20;2.78;;;;;;;;;;4971073;28;20041;-75
2022/06/16 11:36:22;;;;;;;14.05;2.63;;;;;;;;;;4969975;28;20038;-74
2022/06/16 11:38:53;;;;;;;11.07;2.90;;;;;;;;;;4968562;28;20042;-74
2022/06/16 11:41:21;;;;;;;9.82;2.90;;;;;;;;;;4965993;28;20039;-74
2022/06/16 11:43:55;;;;;;;8.48;2.92;;;;;;;;;;4972249;28;20039;-74
2022/06/16 11:46:24;;;;;;;18.10;3.28;;;;;;;;;;4970600;28;20027;-75
2022/06/16 11:48:56;;;;;;;21.73;3.15;;;;;;;;;;4956657;28;20042;-74
2022/06/16 11:51:33;;;;;;;15.63;2.97;;;;;;;;;;4971440;28;20031;-74
2022/06/16 11:54:06;;;;;;;10.55;2.78;;;;;;;;;;4970982;28;20039;-75
2022/06/16 11:56:49;;;;;;;12.73;2.67;;;;;;;;;;4953799;28;20027;-74
2022/06/16 11:59:32;;;;;;;15.55;3.00;;;;;;;;;;4974163;28;20031;-75
2022/06/16 12:02:02;;;;;;;15.00;2.80;;;;;;;;;;4975831;28;20034;-75
2022/06/16 12:04:38;;;;;;;10.77;2.70;;;;;;;;;;4983453;28;20498;-74
2022/06/16 12:07:04;;;;;;;9.18;2.55;;;;;;;;;;4972890;28;20023;-74
2022/06/16 12:09:43;;;;;;;13.30;2.95;;;;;;;;;;4974865;28;20023;-74
2022/06/16 12:12:19;;;;;;;11.45;2.78;;;;;;;;;;4971170;28;20029;-73
2022/06/16 12:14:54;;;;;;;9.35;2.42;;;;;;;;;;4971018;28;20053;-74
2022/06/16 12:17:28;;;;;;;12.82;2.85;;;;;;;;;;4969563;28;20031;-74
2022/06/16 12:19:58;;;;;;;14.07;2.58;;;;;;;;;;4956861;28;20565;-74
2022/06/16 12:22:43;;;;;;;13.20;2.80;;;;;;;;;;4969660;28;20365;-74
2022/06/16 12:25:09;;;;;;;10.70;2.50;;;;;;;;;;4968034;28;20022;-74
2022/06/16 12:27:41;;;;;;;10.55;2.50;;;;;;;;;;4973150;28;20034;-73
2022/06/16 12:30:19;;;;;;;9.85;2.55;;;;;;;;;;4973117;28;20037;-74
2022/06/16 12:32:57;;;;;;;15.70;2.53;;;;;;;;;;4972090;28;20031;-73
2022/06/16 12:35:30;;;;;;;8.63;3.00;;;;;;;;;;4972806;28;20038;-74
2022/06/16 12:37:59;;;;;;;10.70;2.50;;;;;;;;;;4971657;28;20077;-74
2022/06/16 12:40:37;;;;;;;13.77;2.78;;;;;;;;;;4972458;28;20515;-74
2022/06/16 12:43:19;;;;;;;11.55;2.90;;;;;;;;;;4958262;28;20023;-73
2022/06/16 12:45:49;;;;;;;7.50;2.67;;;;;;;;;;4973668;28;20026;-74
2022/06/16 12:48:18;;;;;;;11.95;2.78;;;;;;;;;;4971999;28;20049;-74
2022/06/16 12:50:50;;;;;;;10.35;2.30;;;;;;;;;;4972426;28;20027;-73
2022/06/16 12:53:22;;;;;;;14.55;2.60;;;;;;;;;;4972843;28;20035;-73
2022/06/16 12:56:00;;;;;;;9.45;2.90;;;;;;;;;;4972488;28;20034;-74
2022/06/16 12:58:49;;;;;;;12.90;3.03;;;;;;;;;;4967288;28;20041;-74
2022/06/16 13:01:16;;;;;;;9.55;2.85;;;;;;;;;;4886800;29;20169;-73
2022/06/16 13:03:47;;;;;;;14.30;2.50;;;;;;;;;;4892546;29;20033;-74
2022/06/16 13:06:14;;;;;;;11.73;2.70;;;;;;;;;;4893457;29;20052;-74
2022/06/16 13:08:42;;;;;;;11.80;2.90;;;;;;;;;;4890259;29;20033;-74
2022/06/16 13:11:10;;;;;;;15.02;2.65;;;;;;;;;;4886482;29;20033;-73
2022/06/16 13:13:39;;;;;;;15.55;3.10;;;;;;;;;;4889381;29;20040;-74
2022/06/16 13:16:08;;;;;;;9.53;2.43;;;;;;;;;;4893063;29;20166;-73
2022/06/16 13:18:42;;;;;;;18.48;2.63;;;;;;;;;;4893194;29;20277;-73
2022/06/16 13:21:08;;;;;;;12.43;3.10;;;;;;;;;;4889795;29;20040;-74
2022/06/16 13:23:37;;;;;;;16.83;3.10;;;;;;;;;;4888942;29;20048;-74
2022/06/16 13:26:07;;;;;;;16.97;3.43;;;;;;;;;;4889309;29;20572;-73
2022/06/16 13:28:38;;;;;;;16.23;3.37;;;;;;;;;;4889045;29;20055;-73
2022/06/16 13:31:13;;;;;;;23.33;3.47;;;;;;;;;;4892739;29;20048;-74
2022/06/16 13:33:50;;;;;;;15.10;3.30;;;;;;;;;;4889340;29;20055;-73
2022/06/16 13:36:23;;;;;;;16.55;3.55;;;;;;;;;;4890208;29;20387;-73
2022/06/16 13:38:50;;;;;;;15.57;3.60;;;;;;;;;;4925073;28;20054;-73
2022/06/16 13:41:33;;;;;;;13.80;3.20;;;;;;;;;;4971440;28;20054;-73
2022/06/16 13:44:12;;;;;;;13.23;3.08;;;;;;;;;;4954242;28;20413;-73
2022/06/16 13:46:47;;;;;;;9.65;2.97;;;;;;;;;;4971268;28;20211;-74
2022/06/16 13:49:25;;;;;;;12.60;3.25;;;;;;;;;;4958485;28;20022;-74
2022/06/16 13:51:51;;;;;;;17.95;3.55;;;;;;;;;;4971240;28;20033;-73
2022/06/16 13:54:28;;;;;;;15.00;3.65;;;;;;;;;;4972278;28;20787;-73
2022/06/16 13:56:54;;;;;;;11.07;3.00;;;;;;;;;;4971366;28;20057;-73
2022/06/16 13:59:27;;;;;;;17.85;3.72;;;;;;;;;;4971924;28;20041;-73
2022/06/16 14:02:10;;;;;;;12.38;3.30;;;;;;;;;;4971874;28;20411;-74
2022/06/16 14:04:45;;;;;;;16.02;3.53;;;;;;;;;;4971335;28;20026;-74
2022/06/16 14:07:15;;;;;;;17.85;3.28;;;;;;;;;;4971748;28;20407;-74
2022/06/16 14:09:50;;;;;;;18.30;3.10;;;;;;;;;;4971367;28;20035;-73
2022/06/16 14:12:19;;;;;;;15.70;3.47;;;;;;;;;;4970676;28;20030;-73
2022/06/16 14:14:48;;;;;;;22.67;3.92;;;;;;;;;;4971394;28;20054;-74
2022/06/16 14:17:35;;;;;;;30.40;4.80;;;;;;;;;;4970329;28;20029;-74
2022/06/16 14:20:08;;;;;;;17.17;3.17;;;;;;;;;;4967113;28;20376;-73
2022/06/16 14:22:36;;;;;;;13.55;3.50;;;;;;;;;;4971141;28;20031;-73
2022/06/16 14:25:09;;;;;;;12.80;3.47;;;;;;;;;;4970706;28;20033;-73
2022/06/16 14:27:49;;;;;;;15.27;3.85;;;;;;;;;;4971453;28;20031;-73
2022/06/16 14:30:19;;;;;;;16.27;3.45;;;;;;;;;;4961241;28;20049;-73
2022/06/16 14:32:49;;;;;;;19.45;3.63;;;;;;;;;;4969612;28;20030;-73
2022/06/16 14:35:22;;;;;;;20.58;4.50;;;;;;;;;;4964748;28;20023;-74
2022/06/16 14:38:01;;;;;;;15.18;3.40;;;;;;;;;;4962294;28;20491;-73
2022/06/16 14:40:44;;;;;;;20.02;3.65;;;;;;;;;;4969115;28;20044;-73
2022/06/16 14:43:26;;;;;;;22.55;3.95;;;;;;;;;;4959676;28;20031;-74
2022/06/16 14:46:03;;;;;;;20.67;3.75;;;;;;;;;;4963991;28;20111;-73
2022/06/16 14:48:32;;;;;;;24.05;4.00;;;;;;;;;;4968329;28;20365;-73
2022/06/16 14:51:01;;;;;;;22.83;3.78;;;;;;;;;;4962177;28;20079;-74
2022/06/16 14:53:38;;;;;;;23.08;4.13;;;;;;;;;;4968644;28;20402;-73
2022/06/16 14:56:10;;;;;;;15.98;3.25;;;;;;;;;;4972198;28;20031;-74
2022/06/16 14:58:53;;;;;;;15.77;3.85;;;;;;;;;;4971795;28;20027;-73
2022/06/16 15:01:29;;;;;;;19.38;3.75;;;;;;;;;;4972388;28;20414;-73
2022/06/16 15:03:57;;;;;;;14.25;3.42;;;;;;;;;;4971333;28;20492;-74
2022/06/16 15:06:24;;;;;;;20.08;4.13;;;;;;;;;;4958007;28;20033;-73
2022/06/16 15:08:54;;;;;;;20.73;3.95;;;;;;;;;;4971357;28;20037;-73
2022/06/16 15:11:20;;;;;;;;;;;;;;;;;;4968238;28;20038;-73
2022/06/16 15:13:52;;;;;;;18.52;3.80;;;;;;;;;;4971404;28;20400;-74